Flight Track Log - Related Links

Times and Time Zones

All times are in EDT time to prevent confusion due to time zone crossing. See the CPZ5750 flight status page for this flight to view local times or setup timezone preferences in your user account.

Time Position Orientation Groundspeed Altitude Reporting Facility
EDT Latitude Longitude Course Direction KTS MPH feet Rate Location/Type
Tue 07:35:36 PM 42.7106 -73.8586 251° West 222 255 2,700  Level Boston Center
Tue 07:37:17 PM 42.7967 -73.9681 317° Northwest 300 345 6,600 2,720 Climbing Boston Center
Tue 07:38:17 PM 42.8581 -74.0431 318° Northwest 285 328 10,000 2,250 Climbing Boston Center
Tue 07:39:17 PM 42.9236 -74.1244 318° Northwest 296 341 11,100 1,750 Climbing Boston Center
Tue 07:40:17 PM 42.9931 -74.2142 317° Northwest 335 386 13,500 2,150 Climbing Boston Center
Tue 07:41:17 PM 43.0667 -74.3072 317° Northwest 350 403 15,400 1,900 Climbing Boston Center
Tue 07:42:17 PM 43.1400 -74.4006 317° Northwest 355 409 17,300 1,600 Climbing Boston Center
Tue 07:43:17 PM 43.1797 -74.5158 295° West 360 414 18,600 1,400 Climbing Boston Center
Tue 07:44:17 PM 43.1769 -74.6608 269° West 347 399 20,100 1,550 Climbing Boston Center
Tue 07:45:17 PM 43.1761 -74.8089 270° West 373 429 21,700 1,450 Climbing Boston Center
Tue 07:46:17 PM 43.1750 -74.9597 269° West 384 442 23,000 1,400 Climbing Boston Center
Tue 07:47:17 PM 43.1819 -75.1111 274° West 396 456 24,500 1,400 Climbing Boston Center
Tue 07:48:17 PM 43.2097 -75.2606 284° West 401 461 25,800 1,182 Climbing Boston Center
Tue 07:49:29 PM 43.2467 -75.4389 286° West 406 467 27,100 864 Climbing Boston Center
Tue 07:50:29 PM 43.2761 -75.5914 285° West 411 473 27,700 600 Climbing Boston Center
Tue 07:51:29 PM 43.3050 -75.7472 284° West 416 479 28,300 600 Climbing Boston Center
Tue 07:52:29 PM 43.3356 -75.9086 285° West 429 494 28,900 600 Climbing Boston Center
Tue 07:53:29 PM 43.3908 -76.0719 295° West 434 499 29,500 750 Climbing Boston Center
Tue 07:54:29 PM 43.4658 -76.2108 307° West 434 499 30,400 1,050 Climbing Boston Center
Tue 07:55:29 PM 43.5361 -76.3500 305° West 441 507 31,600 1,200 Climbing Boston Center
Tue 07:56:29 PM 43.5958 -76.4886 301° West 441 507 32,800 800 Climbing Boston Center
Tue 07:57:29 PM 43.6214 -76.6511 282° West 427 491 33,200 550 Climbing Boston Center
Tue 07:58:29 PM 43.6464 -76.8164 282° West 432 497 33,900 329 Climbing Boston Center
Tue 07:59:55 PM 43.6667 -77.0333 277° West 450 518 34,000 41 Climbing Toronto Center
Tue 08:00:55 PM 43.7000 -77.1833 287° West 450 518 34,000  Level Toronto Center
Tue 08:01:55 PM 43.7167 -77.3667 277° West 460 529 34,000  Level Toronto Center
Tue 08:02:55 PM 43.7500 -77.5333 286° West 460 529 34,000  Level Toronto Center
Tue 08:03:55 PM 43.7833 -77.7167 284° West 460 529 34,000  Level Toronto Center
Tue 08:04:55 PM 43.8000 -77.8833 278° West 460 529 34,000  Level Toronto Center
Tue 08:05:55 PM 43.8167 -78.0667 277° West 460 529 34,000  Level Toronto Center
Tue 08:06:55 PM 43.8500 -78.2167 287° West 450 518 34,000  Level Toronto Center
Tue 08:07:55 PM 43.8667 -78.4000 277° West 460 529 34,000  Level Toronto Center
Tue 08:08:55 PM 43.9000 -78.5667 286° West 460 529 34,000  Level Toronto Center
Tue 08:09:55 PM 43.9333 -78.7500 284° West 450 518 34,000  Level Toronto Center
Tue 08:11:55 PM 43.9667 -79.0833 278° West 450 518 34,000  Level Toronto Center
Tue 08:12:55 PM 44.0000 -79.2667 284° West 450 518 34,000  Level Toronto Center
Tue 08:13:55 PM 44.0167 -79.4167 279° West 450 518 34,000  Level Toronto Center
Tue 08:14:55 PM 44.0333 -79.5833 278° West 450 518 34,000  Level Toronto Center
Tue 08:15:55 PM 44.0667 -79.7667 284° West 450 518 34,000  Level Toronto Center
Tue 08:16:55 PM 44.0833 -79.9333 278° West 450 518 34,000  Level Toronto Center
Tue 08:17:55 PM 44.1000 -80.1167 277° West 450 518 34,000  Level Toronto Center
Tue 08:18:55 PM 44.1333 -80.2833 286° West 450 518 34,000  Level Toronto Center
Tue 08:19:55 PM 44.1500 -80.4500 278° West 440 506 34,000  Level Toronto Center
Tue 08:20:55 PM 44.1667 -80.6333 277° West 440 506 34,000  Level Toronto Center
Tue 08:21:55 PM 44.2000 -80.8000 286° West 440 506 34,000  Level Toronto Center
Tue 08:22:55 PM 44.2000 -80.9667 270° West 440 506 34,000  Level Toronto Center
Tue 08:23:55 PM 44.2167 -81.1167 279° West 440 506 34,000  Level Toronto Center
Tue 08:24:55 PM 44.2500 -81.2833 286° West 440 506 34,000  Level Toronto Center
Tue 08:25:55 PM 44.2667 -81.4667 277° West 440 506 34,000  Level Toronto Center
Tue 08:26:55 PM 44.2833 -81.6333 278° West 440 506 34,000  Level Toronto Center
Tue 08:27:55 PM 44.3167 -81.8000 286° West 440 506 34,000  Level Toronto Center
Tue 08:28:55 PM 44.3167 -81.9667 270° West 440 506 34,000  Level Toronto Center
Tue 08:29:55 PM 44.3333 -82.1500 277° West 450 518 34,000  Level Toronto Center
Tue 08:30:55 PM 44.3500 -82.3167 278° West 440 506 34,000  Level Toronto Center
Tue 08:31:25 PM 44.3756 -82.3936 295° West 443 510 34,000  Level Minneapolis Center
Tue 08:32:27 PM 44.3944 -82.5600 279° West 438 504 34,000  Level Minneapolis Center
Tue 08:33:29 PM 44.4133 -82.7264 279° West 436 502 34,000  Level Minneapolis Center
Tue 08:34:30 PM 44.4242 -82.8603 277° West 435 501 34,000  Level Minneapolis Center
Tue 08:35:33 PM 44.4489 -83.0925 279° West 432 497 34,000  Level Minneapolis Center
Tue 08:36:35 PM 44.4644 -83.2583 278° West 432 497 34,000  Level Minneapolis Center
Tue 08:37:37 PM 44.4808 -83.4231 278° West 430 495 34,000  Level Minneapolis Center
Tue 08:38:39 PM 44.4978 -83.5875 278° West 428 493 34,000  Level Minneapolis Center
Tue 08:39:41 PM 44.5122 -83.7528 277° West 428 493 34,000  Level Minneapolis Center
Tue 08:40:43 PM 44.5278 -83.9175 278° West 428 493 34,000  Level Minneapolis Center
Tue 08:41:45 PM 44.5464 -84.1142 278° West 426 490 34,000  Level Minneapolis Center
Tue 08:42:47 PM 44.5608 -84.2769 277° West 423 487 34,000  Level Minneapolis Center
Tue 08:43:49 PM 44.5747 -84.4400 277° West 422 486 34,000  Level Minneapolis Center
Tue 08:45:04 PM 44.5925 -84.6367 277° West 424 488 34,000  Level Minneapolis Center
Tue 08:46:18 PM 44.6075 -84.8006 277° West 425 489 34,000  Level Minneapolis Center
Tue 08:47:20 PM 44.6267 -85.0286 277° West 423 487 34,000  Level Minneapolis Center
Tue 08:48:22 PM 44.6397 -85.1931 276° West 422 486 34,000  Level Minneapolis Center
Tue 08:49:25 PM 44.6533 -85.3578 277° West 426 490 34,000  Level Minneapolis Center
Tue 08:50:27 PM 44.6653 -85.5242 276° West 428 493 34,000  Level Minneapolis Center
Tue 08:51:29 PM 44.6628 -85.6969 269° West 425 489 34,000  Level Minneapolis Center
Tue 08:52:31 PM 44.6581 -85.8622 268° West 421 484 34,000  Level Minneapolis Center
Tue 08:53:33 PM 44.6519 -86.0206 267° West 418 481 34,000  Level Minneapolis Center
Tue 08:54:34 PM 44.6478 -86.1500 267° West 417 480 34,000  Level Minneapolis Center
Tue 08:55:37 PM 44.6378 -86.3825 267° West 419 482 34,000  Level Minneapolis Center
Tue 08:56:39 PM 44.6317 -86.5453 267° West 419 482 34,000  Level Minneapolis Center
Tue 08:57:41 PM 44.6258 -86.7078 267° West 417 480 34,000  Level Minneapolis Center
Tue 08:58:43 PM 44.6194 -86.8700 267° West 417 480 34,000  Level Minneapolis Center
Tue 08:59:45 PM 44.6128 -87.0331 267° West 418 481 34,000  Level Minneapolis Center
Tue 09:00:47 PM 44.6056 -87.1969 267° West 422 486 34,000  Level Minneapolis Center
Tue 09:01:49 PM 44.5969 -87.3903 266° West 416 479 34,000  Level Minneapolis Center
Tue 09:02:51 PM 44.5878 -87.5522 266° West 416 479 34,000  Level Minneapolis Center
Tue 09:03:53 PM 44.5803 -87.7114 266° West 413 475 34,000  Level Minneapolis Center
Tue 09:04:56 PM 44.5719 -87.8742 266° West 417 480 34,000  Level Minneapolis Center
Tue 09:05:58 PM 44.5631 -88.0522 266° West 418 481 34,000  Level Minneapolis Center
Tue 09:07:00 PM 44.5575 -88.2131 267° West 416 479 34,000  Level Minneapolis Center
Tue 09:08:02 PM 44.5772 -88.3767 280° West 424 488 34,000 -48 Level Minneapolis Center
Tue 09:09:04 PM 44.5950 -88.5344 279° West 416 479 33,900 -629 Descending Minneapolis Center
Tue 09:10:06 PM 44.6164 -88.7242 279° West 420 483 32,700 -927 Descending Minneapolis Center
Tue 09:11:07 PM 44.6350 -88.8875 279° West 423 487 32,000 -341 Descending Minneapolis Center
Tue 09:12:09 PM 44.6533 -89.0525 279° West 426 490 32,000  Level Minneapolis Center
Tue 09:13:12 PM 44.6714 -89.2133 279° West 422 486 32,000  Level Minneapolis Center
Tue 09:14:13 PM 44.6894 -89.3758 279° West 421 484 32,000  Level Minneapolis Center
Tue 09:15:27 PM 44.7100 -89.5631 279° West 416 479 32,000  Level Minneapolis Center
Tue 09:16:30 PM 44.7294 -89.7528 278° West 420 483 32,000  Level Minneapolis Center
Tue 09:17:32 PM 44.7461 -89.9147 278° West 420 483 32,000  Level Minneapolis Center
Tue 09:18:34 PM 44.7631 -90.0753 279° West 417 480 32,000  Level Minneapolis Center
Tue 09:19:36 PM 44.7794 -90.2353 278° West 414 476 32,000  Level Minneapolis Center
Tue 09:20:38 PM 44.8003 -90.4242 279° West 417 480 32,000  Level Minneapolis Center
Tue 09:21:39 PM 44.8225 -90.5736 282° West 417 480 32,000 -49 Level Minneapolis Center
Tue 09:22:41 PM 44.8486 -90.7556 282° West 419 482 31,900 -968 Descending Minneapolis Center
Tue 09:23:43 PM 44.8669 -90.8936 281° West 417 480 30,000 -2,177 Descending Minneapolis Center
Tue 09:24:45 PM 44.8917 -91.0833 280° West 413 475 27,400 -2,029 Descending Minneapolis Center
Tue 09:25:59 PM 44.9125 -91.2342 281° West 402 463 25,400 -1,809 Descending Minneapolis Center
Tue 09:27:01 PM 44.9322 -91.4128 279° West 391 450 23,300 -1,984 Descending Minneapolis Center
Tue 09:28:03 PM 44.9217 -91.5617 264° West 385 443 21,300 -1,984 Descending Minneapolis Center
Tue 09:29:05 PM 44.9167 -91.7028 267° West 366 421 19,200 -2,081 Descending Minneapolis Center
Tue 09:30:07 PM 44.9094 -91.8417 266° West 358 412 17,000 -2,146 Descending Minneapolis Center
Tue 09:31:08 PM 44.9014 -91.9975 266° West 333 383 14,800 -2,000 Descending Minneapolis Center
Tue 09:32:10 PM 44.8958 -92.1231 266° West 323 372 12,900 -1,887 Descending Minneapolis Center
Tue 09:33:12 PM 44.8881 -92.2486 265° West 323 372 10,900 -1,403 Descending Minneapolis Center
Tue 09:34:14 PM 44.8664 -92.3678 256° West 318 366 10,000 -439 Descending Minneapolis Center
Tue 09:35:15 PM 44.8289 -92.4753 244° Southwest 308 354 10,000 -585 Level Minneapolis Center
Tue 09:36:17 PM 44.7961 -92.5653 243° Southwest 263 303 8,800 -1,258 Descending Minneapolis Center
Tue 09:37:19 PM 44.7792 -92.6631 256° West 257 296 7,400 -1,415 Descending Minneapolis Center
Tue 09:38:20 PM 44.7717 -92.7850 265° West 263 303 5,900 -1,171 Descending Minneapolis Center
Tue 09:39:22 PM 44.7644 -92.8847 264° West 258 297 5,000 -780 Descending Minneapolis Center
Tue 09:40:23 PM 44.7756 -92.9764 280° West 246 283 4,300 -756 Descending Minneapolis Center
Tue 09:41:37 PM 44.8064 -93.0475 301° West 214 246 3,300 -882 Descending Minneapolis Center
Tue 09:42:39 PM 44.8333 -93.1094 302° West 156 180 2,300 -878 Descending Minneapolis Center
Tue 09:43:40 PM 44.8556 -93.1603 302° West 128 147 1,500 -787 Descending Minneapolis Center
Tue 09:46:00 PM 44.8667 -93.2167 270° West  Level FlightAware Approximate

Login

Don't have an account? Register now (free) for customized features, flight alerts, and more!